Time;durP1;ratioP1;P1;durP2;ratioP2;P2;SDS_P1;SDS_P2;PMS_P1;PMS_P2;Temp;Humidity;BMP_temperature;BMP_pressure;BME280_temperature;BME280_humidity;BME280_pressure;Samples;Min_cycle;Max_cycle;Signal;HPM_P1;HPM_P2
2022/04/27 00:04:06;;;;;;;7.07;2.25;;;;;;;;;;10427558;28;20049;-52
2022/04/27 00:09:06;;;;;;;5.68;1.92;;;;;;;;;;10436760;28;20056;-53
2022/04/27 00:14:07;;;;;;;6.38;2.22;;;;;;;;;;10439494;28;20112;-52
2022/04/27 00:19:07;;;;;;;6.63;1.90;;;;;;;;;;10431852;28;20060;-51
2022/04/27 00:24:08;;;;;;;4.05;1.73;;;;;;;;;;10439408;28;20048;-54
2022/04/27 00:29:09;;;;;;;3.47;1.88;;;;;;;;;;10444920;28;20059;-50
2022/04/27 00:34:09;;;;;;;3.17;1.63;;;;;;;;;;10446489;28;20501;-58
2022/04/27 00:39:11;;;;;;;5.38;2.08;;;;;;;;;;10449285;28;20029;-56
2022/04/27 00:44:12;;;;;;;4.22;2.00;;;;;;;;;;10436928;28;20029;-50
2022/04/27 00:49:13;;;;;;;2.67;1.98;;;;;;;;;;10443035;28;20033;-56
2022/04/27 00:54:14;;;;;;;4.90;1.90;;;;;;;;;;10430842;28;20033;-51
2022/04/27 00:59:16;;;;;;;3.38;1.88;;;;;;;;;;10411278;28;20096;-51
2022/04/27 01:04:16;;;;;;;9.05;1.88;;;;;;;;;;10425739;28;20411;-50
2022/04/27 01:09:18;;;;;;;2.05;1.70;;;;;;;;;;10439263;28;20029;-51
2022/04/27 01:14:18;;;;;;;1.92;1.70;;;;;;;;;;10435502;28;20033;-49
2022/04/27 01:19:22;;;;;;;2.90;1.88;;;;;;;;;;10429905;28;20404;-51
2022/04/27 01:24:24;;;;;;;2.50;1.90;;;;;;;;;;10428235;28;20044;-51
2022/04/27 01:29:25;;;;;;;2.63;1.80;;;;;;;;;;10430319;28;20033;-49
2022/04/27 01:34:26;;;;;;;3.33;1.60;;;;;;;;;;10427741;28;20037;-51
2022/04/27 01:39:26;;;;;;;2.05;1.75;;;;;;;;;;10429919;28;20033;-50
2022/04/27 01:44:27;;;;;;;2.47;1.70;;;;;;;;;;10425461;28;20057;-54
2022/04/27 01:49:27;;;;;;;2.38;1.88;;;;;;;;;;10427232;28;20033;-49
2022/04/27 01:54:28;;;;;;;4.88;1.50;;;;;;;;;;10424044;28;20083;-51
2022/04/27 01:59:29;;;;;;;2.88;1.55;;;;;;;;;;10423522;28;20072;-49
2022/04/27 02:04:30;;;;;;;2.20;1.52;;;;;;;;;;10435847;28;20025;-49
2022/04/27 02:09:30;;;;;;;2.78;2.05;;;;;;;;;;10430490;28;20083;-50
2022/04/27 02:14:31;;;;;;;1.92;1.65;;;;;;;;;;10434142;28;20028;-54
2022/04/27 02:19:32;;;;;;;2.58;1.73;;;;;;;;;;10442303;28;20044;-49
2022/04/27 02:24:33;;;;;;;2.78;1.55;;;;;;;;;;10436175;28;20473;-51
2022/04/27 02:29:33;;;;;;;2.30;1.77;;;;;;;;;;10437002;28;20029;-49
2022/04/27 02:34:34;;;;;;;3.97;1.60;;;;;;;;;;10432822;28;20028;-49
2022/04/27 02:39:35;;;;;;;2.35;1.60;;;;;;;;;;10435189;28;20590;-51
2022/04/27 02:44:35;;;;;;;1.88;1.50;;;;;;;;;;10433321;28;20446;-49
2022/04/27 02:54:55;;;;;;;4.45;1.80;;;;;;;;;;10435757;28;20675;-49
2022/04/27 02:59:56;;;;;;;2.70;1.90;;;;;;;;;;10425243;28;20121;-48
2022/04/27 03:04:56;;;;;;;3.67;1.95;;;;;;;;;;10423923;28;20041;-48
2022/04/27 03:09:57;;;;;;;2.38;1.88;;;;;;;;;;10438087;28;20031;-49
2022/04/27 03:14:57;;;;;;;2.40;1.58;;;;;;;;;;10429539;28;20393;-49
2022/04/27 03:19:58;;;;;;;1.95;1.60;;;;;;;;;;10434482;28;20029;-51
2022/04/27 03:24:58;;;;;;;3.80;1.58;;;;;;;;;;10416106;28;20032;-49
2022/04/27 03:29:59;;;;;;;3.92;1.60;;;;;;;;;;10437300;28;20032;-49
2022/04/27 03:35:00;;;;;;;2.00;1.60;;;;;;;;;;10415523;28;20056;-51
2022/04/27 03:40:00;;;;;;;2.60;1.50;;;;;;;;;;10430846;28;20040;-50
2022/04/27 03:45:01;;;;;;;3.10;1.52;;;;;;;;;;10436310;28;20497;-52
2022/04/27 03:50:04;;;;;;;1.70;1.60;;;;;;;;;;10432889;28;20091;-52
2022/04/27 03:55:05;;;;;;;1.80;1.67;;;;;;;;;;10432493;28;20033;-49
2022/04/27 04:00:09;;;;;;;2.28;1.50;;;;;;;;;;10427303;28;20041;-51
2022/04/27 04:05:09;;;;;;;2.00;1.80;;;;;;;;;;10426918;28;20072;-52
2022/04/27 04:10:10;;;;;;;1.52;1.42;;;;;;;;;;10426643;28;20037;-52
2022/04/27 04:15:12;;;;;;;2.13;1.60;;;;;;;;;;10428456;28;20033;-50
2022/04/27 04:20:14;;;;;;;1.80;1.70;;;;;;;;;;10436758;28;20544;-58
2022/04/27 04:30:35;;;;;;;2.55;1.70;;;;;;;;;;10428752;28;20424;-61
2022/04/27 04:35:36;;;;;;;2.38;1.77;;;;;;;;;;10407332;28;20034;-48
2022/04/27 04:40:37;;;;;;;2.10;1.88;;;;;;;;;;10430518;28;20052;-60
2022/04/27 04:45:38;;;;;;;1.50;1.30;;;;;;;;;;10432914;28;20043;-56
2022/04/27 04:50:38;;;;;;;1.77;1.40;;;;;;;;;;10424171;28;20029;-53
2022/04/27 04:55:39;;;;;;;1.92;1.83;;;;;;;;;;10433732;28;20064;-62
2022/04/27 05:00:39;;;;;;;1.80;1.70;;;;;;;;;;10422437;28;20069;-52
2022/04/27 05:05:41;;;;;;;2.72;1.50;;;;;;;;;;10424493;28;20088;-48
2022/04/27 05:10:41;;;;;;;2.25;1.83;;;;;;;;;;10434321;28;20119;-50
2022/04/27 05:15:42;;;;;;;2.58;1.85;;;;;;;;;;10418788;28;20041;-56
2022/04/27 05:20:43;;;;;;;2.42;1.90;;;;;;;;;;10428929;28;20030;-53
2022/04/27 05:25:43;;;;;;;1.67;1.58;;;;;;;;;;10431640;28;20033;-52
2022/04/27 05:36:04;;;;;;;3.38;1.60;;;;;;;;;;10428631;28;20137;-51
2022/04/27 05:41:04;;;;;;;2.20;1.73;;;;;;;;;;10426706;28;20025;-56
2022/04/27 05:46:06;;;;;;;1.33;1.23;;;;;;;;;;10439470;28;20040;-57
2022/04/27 05:51:07;;;;;;;1.98;1.30;;;;;;;;;;10433885;28;20080;-58
2022/04/27 05:56:08;;;;;;;1.65;1.55;;;;;;;;;;10436591;28;20122;-58
2022/04/27 06:01:09;;;;;;;1.70;1.60;;;;;;;;;;10432935;28;20059;-58
2022/04/27 06:06:09;;;;;;;1.48;1.38;;;;;;;;;;10432025;28;20052;-58
2022/04/27 06:11:10;;;;;;;1.63;1.23;;;;;;;;;;10433927;28;20037;-58
2022/04/27 06:16:11;;;;;;;1.40;1.30;;;;;;;;;;10425964;28;20037;-57
2022/04/27 06:21:11;;;;;;;1.42;1.33;;;;;;;;;;10428067;28;20029;-58
2022/04/27 06:26:13;;;;;;;1.92;1.60;;;;;;;;;;10421355;28;20033;-57
2022/04/27 06:31:14;;;;;;;2.20;1.48;;;;;;;;;;10425225;28;20083;-57
2022/04/27 06:36:15;;;;;;;1.30;1.20;;;;;;;;;;10433313;28;20029;-58
2022/04/27 06:41:15;;;;;;;2.50;1.25;;;;;;;;;;10434240;28;20029;-58
2022/04/27 06:46:16;;;;;;;2.42;1.10;;;;;;;;;;10437984;28;20029;-58
2022/04/27 06:51:18;;;;;;;7.35;1.70;;;;;;;;;;10432038;28;20033;-58
2022/04/27 06:56:18;;;;;;;4.03;1.17;;;;;;;;;;10434122;28;20032;-57
2022/04/27 07:01:19;;;;;;;5.22;1.10;;;;;;;;;;10431555;28;20052;-57
2022/04/27 07:06:22;;;;;;;9.38;1.50;;;;;;;;;;10433838;28;20029;-57
2022/04/27 07:11:23;;;;;;;2.70;1.27;;;;;;;;;;10429086;28;20061;-57
2022/04/27 07:16:23;;;;;;;2.72;1.40;;;;;;;;;;10425641;28;20040;-57
2022/04/27 07:21:24;;;;;;;2.08;1.35;;;;;;;;;;10419559;28;20083;-57
2022/04/27 07:26:25;;;;;;;4.68;1.15;;;;;;;;;;10422227;28;20052;-58
2022/04/27 07:31:26;;;;;;;4.15;0.98;;;;;;;;;;10423333;28;20052;-58
2022/04/27 07:36:26;;;;;;;6.63;1.13;;;;;;;;;;10423928;28;20029;-57
2022/04/27 07:41:27;;;;;;;6.03;1.23;;;;;;;;;;10441313;28;20043;-57
2022/04/27 07:46:28;;;;;;;1.33;1.05;;;;;;;;;;10447300;28;20379;-57
2022/04/27 07:51:28;;;;;;;3.92;1.30;;;;;;;;;;10444653;28;20063;-57
2022/04/27 07:56:29;;;;;;;2.03;0.93;;;;;;;;;;10439860;28;20036;-56
2022/04/27 08:01:30;;;;;;;5.18;1.00;;;;;;;;;;10433405;28;20030;-53
2022/04/27 08:06:31;;;;;;;7.07;1.38;;;;;;;;;;10439441;28;20032;-55
2022/04/27 08:11:32;;;;;;;8.32;1.92;;;;;;;;;;10444817;28;20037;-55
2022/04/27 08:16:32;;;;;;;2.72;1.52;;;;;;;;;;10434276;28;20020;-55
2022/04/27 08:21:33;;;;;;;3.63;1.40;;;;;;;;;;10436709;28;20522;-55
2022/04/27 08:26:33;;;;;;;3.95;1.50;;;;;;;;;;10433563;28;20024;-53
2022/04/27 08:31:34;;;;;;;3.35;1.45;;;;;;;;;;10437155;28;20028;-54
2022/04/27 08:36:34;;;;;;;2.92;1.33;;;;;;;;;;10441446;28;20477;-54
2022/04/27 08:41:35;;;;;;;7.70;1.30;;;;;;;;;;10439581;28;20040;-55
2022/04/27 08:46:37;;;;;;;2.63;1.20;;;;;;;;;;10435280;28;20143;-54
2022/04/27 08:51:39;;;;;;;4.03;1.20;;;;;;;;;;10405807;28;20499;-55
2022/04/27 08:56:39;;;;;;;5.95;1.42;;;;;;;;;;10442910;28;20052;-54
2022/04/27 09:01:40;;;;;;;2.60;1.10;;;;;;;;;;10437344;28;20036;-54
2022/04/27 09:06:41;;;;;;;1.92;1.00;;;;;;;;;;10437842;28;20029;-55
2022/04/27 09:11:42;;;;;;;1.33;1.10;;;;;;;;;;10429955;28;20033;-57
2022/04/27 09:22:04;;;;;;;1.58;1.20;;;;;;;;;;10432288;28;20033;-54
2022/04/27 09:27:10;;;;;;;4.93;1.63;;;;;;;;;;10426204;28;20041;-50
2022/04/27 09:32:17;;;;;;;4.25;1.40;;;;;;;;;;10423364;28;20547;-57
2022/04/27 09:37:24;;;;;;;4.35;1.52;;;;;;;;;;10421104;28;20082;-52
2022/04/27 09:42:37;;;;;;;2.93;1.47;;;;;;;;;;10429533;28;20041;-54
2022/04/27 09:47:57;;;;;;;6.05;1.20;;;;;;;;;;10435381;28;20033;-51
2022/04/27 09:52:59;;;;;;;2.03;1.25;;;;;;;;;;10430856;28;20029;-55
2022/04/27 09:58:01;;;;;;;2.40;1.55;;;;;;;;;;10412988;28;20139;-54
2022/04/27 10:03:02;;;;;;;1.65;1.05;;;;;;;;;;10409155;28;20099;-50
2022/04/27 10:08:04;;;;;;;1.85;1.20;;;;;;;;;;10413752;28;20044;-49
2022/04/27 10:13:12;;;;;;;1.90;1.20;;;;;;;;;;10436831;28;20021;-50
2022/04/27 10:18:18;;;;;;;1.75;1.10;;;;;;;;;;10422481;28;20079;-53
2022/04/27 10:23:28;;;;;;;2.90;1.17;;;;;;;;;;10433062;28;20044;-51
2022/04/27 10:28:29;;;;;;;2.08;1.27;;;;;;;;;;10433319;28;20025;-55
2022/04/27 10:33:48;;;;;;;1.88;1.00;;;;;;;;;;10401083;28;20072;-59
2022/04/27 10:39:16;;;;;;;2.58;1.23;;;;;;;;;;10428114;28;20084;-50
2022/04/27 10:44:17;;;;;;;2.97;1.00;;;;;;;;;;10429914;28;20061;-53
2022/04/27 10:49:28;;;;;;;1.73;1.20;;;;;;;;;;10436493;28;20091;-53
2022/04/27 10:54:31;;;;;;;1.40;1.27;;;;;;;;;;10443935;28;20112;-50
2022/04/27 10:59:49;;;;;;;1.88;1.42;;;;;;;;;;10424208;28;20072;-53
2022/04/27 11:04:52;;;;;;;2.07;1.10;;;;;;;;;;10428101;28;20040;-50
2022/04/27 11:10:14;;;;;;;1.90;1.10;;;;;;;;;;10410501;28;20033;-50
2022/04/27 11:15:21;;;;;;;3.22;1.40;;;;;;;;;;10430116;28;20465;-54
2022/04/27 11:20:37;;;;;;;1.00;1.00;;;;;;;;;;10435287;28;20056;-51
2022/04/27 11:25:40;;;;;;;2.80;1.55;;;;;;;;;;10431351;28;20083;-55
2022/04/27 11:30:40;;;;;;;1.98;1.63;;;;;;;;;;10349442;28;20050;-55
2022/04/27 11:35:47;;;;;;;1.50;1.33;;;;;;;;;;10326463;28;20025;-52
2022/04/27 11:40:52;;;;;;;1.95;1.40;;;;;;;;;;10325923;28;20035;-52
2022/04/27 11:45:55;;;;;;;2.78;1.50;;;;;;;;;;10309318;28;20047;-51
2022/04/27 11:51:01;;;;;;;2.28;1.80;;;;;;;;;;10319293;28;20586;-52
2022/04/27 11:56:01;;;;;;;8.02;2.15;;;;;;;;;;10320009;28;20029;-55
2022/04/27 12:01:02;;;;;;;3.90;1.90;;;;;;;;;;10325653;28;20026;-55
2022/04/27 12:06:03;;;;;;;3.55;2.13;;;;;;;;;;10323735;28;20435;-53
2022/04/27 12:11:03;;;;;;;5.47;2.63;;;;;;;;;;10323684;28;20485;-54
2022/04/27 12:16:04;;;;;;;4.07;1.95;;;;;;;;;;10321199;28;20038;-55
2022/04/27 12:21:19;;;;;;;3.90;2.30;;;;;;;;;;10319392;28;20057;-56
2022/04/27 12:26:20;;;;;;;3.47;2.25;;;;;;;;;;10320073;28;20461;-56
2022/04/27 12:31:27;;;;;;;2.58;2.00;;;;;;;;;;10321928;28;20049;-52
2022/04/27 12:42:16;;;;;;;5.03;1.92;;;;;;;;;;10321001;28;20038;-55
2022/04/27 12:47:16;;;;;;;6.82;2.17;;;;;;;;;;10309518;28;20077;-53
2022/04/27 12:52:30;;;;;;;3.08;2.00;;;;;;;;;;10317916;28;20113;-54
2022/04/27 12:57:47;;;;;;;3.30;1.80;;;;;;;;;;10320378;28;20050;-50
2022/04/27 13:02:48;;;;;;;3.88;2.30;;;;;;;;;;10318497;28;20042;-56
2022/04/27 13:07:49;;;;;;;4.00;1.75;;;;;;;;;;10322309;28;20089;-52
2022/04/27 13:12:50;;;;;;;3.83;1.90;;;;;;;;;;10324956;28;20034;-54
2022/04/27 13:17:50;;;;;;;7.22;1.90;;;;;;;;;;10319649;28;20422;-55
2022/04/27 13:22:52;;;;;;;8.00;1.88;;;;;;;;;;10321152;28;20483;-56
2022/04/27 13:27:52;;;;;;;5.80;1.90;;;;;;;;;;10314060;28;20030;-57
2022/04/27 13:32:54;;;;;;;9.63;1.90;;;;;;;;;;10321159;28;20501;-52
2022/04/27 13:37:55;;;;;;;14.48;2.60;;;;;;;;;;10319540;28;20069;-50
2022/04/27 13:42:55;;;;;;;10.82;2.08;;;;;;;;;;10316007;28;20118;-56
2022/04/27 13:47:56;;;;;;;20.50;2.10;;;;;;;;;;10309815;28;20022;-50
2022/04/27 13:52:56;;;;;;;30.02;3.92;;;;;;;;;;10313141;28;20048;-59
2022/04/27 13:57:58;;;;;;;26.10;2.78;;;;;;;;;;10312940;28;20462;-54
2022/04/27 14:02:58;;;;;;;56.38;4.78;;;;;;;;;;10321503;28;20037;-56
2022/04/27 14:07:59;;;;;;;48.40;4.50;;;;;;;;;;10328126;28;20037;-48
2022/04/27 14:13:13;;;;;;;43.55;4.20;;;;;;;;;;10326649;28;20027;-58
2022/04/27 14:18:14;;;;;;;37.35;4.70;;;;;;;;;;10328228;28;20061;-57
2022/04/27 14:23:16;;;;;;;42.55;3.22;;;;;;;;;;10327729;28;20030;-55
2022/04/27 14:28:19;;;;;;;23.63;3.92;;;;;;;;;;10328363;28;20069;-58
2022/04/27 14:33:20;;;;;;;45.08;4.78;;;;;;;;;;10325927;28;20065;-51
2022/04/27 14:38:22;;;;;;;44.13;5.22;;;;;;;;;;10327944;28;20085;-55
2022/04/27 14:43:23;;;;;;;60.20;4.32;;;;;;;;;;10326979;28;20057;-55
2022/04/27 14:48:23;;;;;;;46.05;3.92;;;;;;;;;;10325996;28;20052;-48
2022/04/27 14:53:24;;;;;;;36.97;3.65;;;;;;;;;;10319880;28;20394;-53
2022/04/27 14:58:25;;;;;;;21.33;3.17;;;;;;;;;;10326272;28;20375;-55
2022/04/27 15:03:27;;;;;;;19.77;3.35;;;;;;;;;;10319725;28;20037;-57
2022/04/27 15:08:27;;;;;;;19.77;3.72;;;;;;;;;;10325299;28;20057;-48
2022/04/27 15:13:28;;;;;;;19.75;2.92;;;;;;;;;;10324037;28;20038;-53
2022/04/27 15:18:29;;;;;;;16.20;2.55;;;;;;;;;;10327375;28;20435;-49
2022/04/27 15:23:29;;;;;;;7.75;2.53;;;;;;;;;;10326579;28;20042;-48
2022/04/27 15:28:30;;;;;;;10.95;2.38;;;;;;;;;;10325889;28;20532;-49
2022/04/27 15:33:31;;;;;;;10.52;1.95;;;;;;;;;;10326424;28;20406;-49
2022/04/27 15:38:32;;;;;;;6.55;2.08;;;;;;;;;;10326306;28;20470;-54
2022/04/27 15:43:32;;;;;;;11.20;2.25;;;;;;;;;;10327339;28;20026;-52
2022/04/27 15:48:33;;;;;;;12.70;2.20;;;;;;;;;;10327741;28;20026;-51
2022/04/27 15:53:34;;;;;;;11.95;2.20;;;;;;;;;;10327417;28;20084;-57
2022/04/27 15:58:34;;;;;;;4.43;1.95;;;;;;;;;;10327022;28;20038;-49
2022/04/27 16:03:36;;;;;;;9.90;1.92;;;;;;;;;;10313737;28;20061;-50
2022/04/27 16:08:36;;;;;;;10.50;2.13;;;;;;;;;;10326459;28;20100;-52
2022/04/27 16:13:37;;;;;;;4.63;2.28;;;;;;;;;;10325438;28;20548;-52
2022/04/27 16:18:38;;;;;;;7.80;2.95;;;;;;;;;;10324935;28;20038;-51
2022/04/27 16:23:39;;;;;;;6.82;2.17;;;;;;;;;;10324217;28;20066;-53
2022/04/27 16:28:39;;;;;;;5.03;1.63;;;;;;;;;;10355921;28;20066;-55
2022/04/27 16:33:42;;;;;;;7.15;1.63;;;;;;;;;;10325849;28;20034;-49
2022/04/27 16:38:44;;;;;;;7.32;1.90;;;;;;;;;;10326525;28;20038;-52
2022/04/27 16:43:45;;;;;;;4.90;1.77;;;;;;;;;;10326315;28;20038;-51
2022/04/27 16:48:46;;;;;;;4.80;1.58;;;;;;;;;;10324994;28;20485;-52
2022/04/27 16:53:49;;;;;;;6.05;1.70;;;;;;;;;;10322726;28;20062;-54
2022/04/27 16:58:49;;;;;;;14.45;2.70;;;;;;;;;;10323230;28;20074;-49
2022/04/27 17:03:50;;;;;;;9.15;2.17;;;;;;;;;;10311908;28;20023;-50
2022/04/27 17:08:52;;;;;;;17.55;3.10;;;;;;;;;;10316517;28;20034;-52
2022/04/27 17:13:53;;;;;;;20.70;2.55;;;;;;;;;;10321249;28;20030;-58
2022/04/27 17:18:54;;;;;;;77.68;8.73;;;;;;;;;;10318865;28;20034;-63
2022/04/27 17:23:55;;;;;;;70.82;6.38;;;;;;;;;;10347882;28;20038;-58
2022/04/27 17:28:55;;;;;;;39.03;4.07;;;;;;;;;;10315659;28;20085;-56
2022/04/27 17:33:56;;;;;;;53.85;4.78;;;;;;;;;;10320813;28;20034;-64
2022/04/27 17:38:57;;;;;;;52.90;5.18;;;;;;;;;;10321878;28;20038;-60
2022/04/27 17:43:58;;;;;;;26.30;4.35;;;;;;;;;;10327973;28;20077;-60
2022/04/27 17:48:59;;;;;;;23.00;2.83;;;;;;;;;;10333164;28;20394;-61
2022/04/27 17:53:59;;;;;;;12.45;3.03;;;;;;;;;;10326366;28;20045;-59
2022/04/27 17:59:00;;;;;;;12.25;2.42;;;;;;;;;;10327594;28;20042;-61
2022/04/27 18:04:00;;;;;;;11.70;2.60;;;;;;;;;;10327180;28;20046;-62
2022/04/27 18:09:01;;;;;;;6.72;2.28;;;;;;;;;;10313363;28;20034;-59
2022/04/27 18:14:02;;;;;;;11.27;2.22;;;;;;;;;;10321520;28;20164;-57
2022/04/27 18:19:03;;;;;;;11.13;2.50;;;;;;;;;;10323361;28;20022;-56
2022/04/27 18:24:05;;;;;;;17.95;2.38;;;;;;;;;;10325282;28;20376;-60
2022/04/27 18:29:06;;;;;;;15.43;2.40;;;;;;;;;;10329950;28;20027;-60
2022/04/27 18:34:08;;;;;;;8.07;2.20;;;;;;;;;;10326440;28;20044;-58
2022/04/27 18:39:09;;;;;;;6.45;1.90;;;;;;;;;;10325922;28;20027;-60
2022/04/27 18:54:50;;;;;;;4.93;2.28;;;;;;;;;;10326068;28;20022;-59
2022/04/27 18:59:52;;;;;;;6.03;2.30;;;;;;;;;;10322190;28;20054;-59
2022/04/27 19:04:53;;;;;;;3.63;1.90;;;;;;;;;;10327104;28;20033;-59
2022/04/27 19:09:54;;;;;;;4.63;1.88;;;;;;;;;;10321880;28;20449;-58
2022/04/27 19:14:55;;;;;;;4.03;1.95;;;;;;;;;;10328932;28;20039;-58
2022/04/27 19:19:56;;;;;;;2.85;2.00;;;;;;;;;;10321572;28;20089;-57
2022/04/27 19:24:56;;;;;;;5.43;1.90;;;;;;;;;;10328940;28;20034;-58
2022/04/27 19:29:58;;;;;;;3.30;2.03;;;;;;;;;;10319287;28;20038;-58
2022/04/27 19:35:02;;;;;;;3.92;2.10;;;;;;;;;;10328564;28;20108;-57
2022/04/27 19:40:03;;;;;;;4.35;2.28;;;;;;;;;;10327078;28;20293;-58
2022/04/27 19:45:04;;;;;;;6.53;2.47;;;;;;;;;;10320277;28;20465;-57
2022/04/27 19:50:06;;;;;;;4.78;1.85;;;;;;;;;;10328408;28;20035;-62
2022/04/27 19:55:08;;;;;;;6.88;2.33;;;;;;;;;;10328819;28;20056;-61
2022/04/27 20:00:10;;;;;;;18.90;2.85;;;;;;;;;;10324620;28;20075;-55
2022/04/27 20:05:13;;;;;;;5.60;2.20;;;;;;;;;;10323873;28;20042;-57
2022/04/27 20:10:14;;;;;;;2.88;2.28;;;;;;;;;;10327839;28;20092;-57
2022/04/27 20:15:15;;;;;;;4.88;2.03;;;;;;;;;;10327265;28;20105;-51
2022/04/27 20:20:15;;;;;;;6.82;2.40;;;;;;;;;;10320633;28;20038;-52
2022/04/27 20:25:16;;;;;;;4.63;2.97;;;;;;;;;;10324294;28;20133;-54
2022/04/27 20:30:17;;;;;;;5.05;3.10;;;;;;;;;;10317042;28;20034;-52
2022/04/27 20:35:17;;;;;;;5.07;3.10;;;;;;;;;;10324073;28;20096;-50
2022/04/27 20:40:18;;;;;;;5.88;3.67;;;;;;;;;;10325749;28;20034;-55
2022/04/27 20:45:18;;;;;;;5.20;3.15;;;;;;;;;;10324720;28;20034;-53
2022/04/27 20:50:19;;;;;;;5.63;3.50;;;;;;;;;;10323756;28;20033;-54
2022/04/27 20:55:20;;;;;;;5.38;3.10;;;;;;;;;;10323457;28;20026;-54
2022/04/27 21:00:20;;;;;;;4.30;3.00;;;;;;;;;;10323096;28;20070;-53
2022/04/27 21:05:21;;;;;;;7.47;3.58;;;;;;;;;;10311240;28;20042;-62
2022/04/27 21:10:23;;;;;;;8.65;4.13;;;;;;;;;;10322428;28;20482;-59
2022/04/27 21:15:23;;;;;;;5.32;3.50;;;;;;;;;;10323812;28;20034;-61
2022/04/27 21:20:24;;;;;;;7.05;4.03;;;;;;;;;;10322886;28;20900;-50
2022/04/27 21:25:25;;;;;;;7.95;3.97;;;;;;;;;;10327508;28;20454;-56
2022/04/27 21:30:25;;;;;;;7.53;3.38;;;;;;;;;;10322073;28;20360;-53
2022/04/27 21:35:26;;;;;;;9.13;4.05;;;;;;;;;;10332557;28;20034;-52
2022/04/27 21:40:27;;;;;;;8.25;4.10;;;;;;;;;;10324959;28;20035;-54
2022/04/27 22:11:43;;;;;;;7.10;3.47;;;;;;;;;;10127011;28;20359;-67
2022/04/27 22:16:45;;;;;;;6.38;3.22;;;;;;;;;;10332893;28;20038;-65
2022/04/27 22:21:49;;;;;;;5.80;3.03;;;;;;;;;;10294245;28;20387;-66
2022/04/27 22:26:49;;;;;;;4.53;3.20;;;;;;;;;;10355850;28;20034;-66
2022/04/27 22:31:50;;;;;;;6.82;3.53;;;;;;;;;;10310713;28;20078;-66
2022/04/27 22:36:51;;;;;;;5.78;3.00;;;;;;;;;;10327323;28;20053;-65
2022/04/27 22:41:51;;;;;;;5.22;3.42;;;;;;;;;;10328049;28;20030;-66
2022/04/27 22:46:52;;;;;;;4.57;2.40;;;;;;;;;;10328066;28;20037;-66
2022/04/27 22:51:53;;;;;;;2.83;2.40;;;;;;;;;;10329511;28;20497;-67
2022/04/27 22:56:54;;;;;;;4.95;2.75;;;;;;;;;;10328956;28;20049;-67
2022/04/27 23:01:54;;;;;;;3.45;2.80;;;;;;;;;;10329651;28;20406;-66
2022/04/27 23:06:55;;;;;;;11.50;3.30;;;;;;;;;;10296683;28;20535;-62
2022/04/27 23:11:56;;;;;;;6.93;2.95;;;;;;;;;;10329491;28;20943;-63
2022/04/27 23:16:57;;;;;;;6.15;3.30;;;;;;;;;;10335008;28;20128;-61
2022/04/27 23:21:57;;;;;;;3.65;2.63;;;;;;;;;;10326774;28;20061;-62
2022/04/27 23:26:59;;;;;;;4.60;2.60;;;;;;;;;;10323944;28;20643;-61
2022/04/27 23:32:00;;;;;;;8.57;2.65;;;;;;;;;;10322560;28;20238;-61
2022/04/27 23:37:03;;;;;;;11.27;2.58;;;;;;;;;;10319639;28;20308;-61
2022/04/27 23:42:04;;;;;;;6.43;2.75;;;;;;;;;;10328615;28;20037;-61
2022/04/27 23:47:08;;;;;;;8.25;2.40;;;;;;;;;;10328011;28;20471;-61
2022/04/27 23:52:11;;;;;;;6.63;2.78;;;;;;;;;;10347827;28;20041;-61
2022/04/27 23:57:12;;;;;;;9.77;3.35;;;;;;;;;;10326405;28;20447;-61
